sensor_id;sensor_type;location;lat;lon;timestamp;pressure;altitude;pressure_sealevel;temperature;humidity
19108;BME280;9686;48.832;9.126;2023-03-20T00:00:49;98413.25;;;10.61;nan
19108;BME280;9686;48.832;9.126;2023-03-20T00:03:15;98405.44;;;10.60;nan
19108;BME280;9686;48.832;9.126;2023-03-20T00:05:41;98409.75;;;10.67;nan
19108;BME280;9686;48.832;9.126;2023-03-20T00:08:06;98408.91;;;10.71;nan
19108;BME280;9686;48.832;9.126;2023-03-20T00:10:38;98415.84;;;10.69;nan
19108;BME280;9686;48.832;9.126;2023-03-20T00:13:05;98413.22;;;10.72;nan
19108;BME280;9686;48.832;9.126;2023-03-20T00:15:34;98408.00;;;10.73;nan
19108;BME280;9686;48.832;9.126;2023-03-20T00:18:00;98405.41;;;10.73;nan
19108;BME280;9686;48.832;9.126;2023-03-20T00:20:26;98411.50;;;10.63;nan
19108;BME280;9686;48.832;9.126;2023-03-20T00:22:52;98417.56;;;10.67;nan
19108;BME280;9686;48.832;9.126;2023-03-20T00:25:21;98415.84;;;10.69;nan
19108;BME280;9686;48.832;9.126;2023-03-20T00:27:47;98414.97;;;10.62;nan
19108;BME280;9686;48.832;9.126;2023-03-20T00:30:15;98418.50;;;10.50;nan
19108;BME280;9686;48.832;9.126;2023-03-20T00:32:43;98414.16;;;10.48;nan
19108;BME280;9686;48.832;9.126;2023-03-20T00:35:20;98422.88;;;10.42;nan
19108;BME280;9686;48.832;9.126;2023-03-20T00:37:46;98425.47;;;10.36;nan
19108;BME280;9686;48.832;9.126;2023-03-20T00:40:12;98426.34;;;10.32;nan
19108;BME280;9686;48.832;9.126;2023-03-20T00:42:37;98432.41;;;10.40;nan
19108;BME280;9686;48.832;9.126;2023-03-20T00:45:03;98423.72;;;10.47;nan
19108;BME280;9686;48.832;9.126;2023-03-20T00:47:29;98426.31;;;10.57;nan
19108;BME280;9686;48.832;9.126;2023-03-20T00:49:56;98422.84;;;10.55;nan
19108;BME280;9686;48.832;9.126;2023-03-20T00:52:22;98422.84;;;10.38;nan
19108;BME280;9686;48.832;9.126;2023-03-20T00:54:48;98429.81;;;10.42;nan
19108;BME280;9686;48.832;9.126;2023-03-20T00:57:21;98433.28;;;10.36;nan
19108;BME280;9686;48.832;9.126;2023-03-20T01:02:26;98431.56;;;10.35;nan
19108;BME280;9686;48.832;9.126;2023-03-20T01:04:53;98435.88;;;10.39;nan
19108;BME280;9686;48.832;9.126;2023-03-20T01:07:18;98437.63;;;10.31;nan
19108;BME280;9686;48.832;9.126;2023-03-20T01:09:44;98440.22;;;10.40;nan
19108;BME280;9686;48.832;9.126;2023-03-20T01:12:11;98439.38;;;10.41;nan
19108;BME280;9686;48.832;9.126;2023-03-20T01:14:37;98436.78;;;10.32;nan
19108;BME280;9686;48.832;9.126;2023-03-20T01:17:02;98436.75;;;10.34;nan
19108;BME280;9686;48.832;9.126;2023-03-20T01:19:28;98437.66;;;10.28;nan
19108;BME280;9686;48.832;9.126;2023-03-20T01:21:53;98438.50;;;10.29;nan
19108;BME280;9686;48.832;9.126;2023-03-20T01:24:18;98432.44;;;10.24;nan
19108;BME280;9686;48.832;9.126;2023-03-20T01:26:44;98433.31;;;10.24;nan
19108;BME280;9686;48.832;9.126;2023-03-20T01:29:19;98433.31;;;10.16;nan
19108;BME280;9686;48.832;9.126;2023-03-20T01:31:45;98435.91;;;10.27;nan
19108;BME280;9686;48.832;9.126;2023-03-20T01:34:11;98436.78;;;10.26;nan
19108;BME280;9686;48.832;9.126;2023-03-20T01:36:37;98436.78;;;10.25;nan
19108;BME280;9686;48.832;9.126;2023-03-20T01:39:03;98434.19;;;10.22;nan
19108;BME280;9686;48.832;9.126;2023-03-20T01:41:30;98440.28;;;10.22;nan
19108;BME280;9686;48.832;9.126;2023-03-20T01:43:55;98448.03;;;10.11;nan
19108;BME280;9686;48.832;9.126;2023-03-20T01:46:28;98449.78;;;10.14;nan
19108;BME280;9686;48.832;9.126;2023-03-20T01:51:49;98450.66;;;10.13;nan
19108;BME280;9686;48.832;9.126;2023-03-20T01:54:28;98451.53;;;10.18;nan
19108;BME280;9686;48.832;9.126;2023-03-20T01:57:02;98448.94;;;10.19;nan
19108;BME280;9686;48.832;9.126;2023-03-20T01:59:47;98450.69;;;10.30;nan
19108;BME280;9686;48.832;9.126;2023-03-20T02:02:17;98442.84;;;10.36;nan
19108;BME280;9686;48.832;9.126;2023-03-20T02:04:45;98451.53;;;10.32;nan
19108;BME280;9686;48.832;9.126;2023-03-20T02:07:15;98452.41;;;10.35;nan
19108;BME280;9686;48.832;9.126;2023-03-20T02:09:42;98453.25;;;10.36;nan
19108;BME280;9686;48.832;9.126;2023-03-20T02:12:07;98453.28;;;10.43;nan
19108;BME280;9686;48.832;9.126;2023-03-20T02:14:34;98455.88;;;10.33;nan
19108;BME280;9686;48.832;9.126;2023-03-20T02:17:09;98454.13;;;10.35;nan
19108;BME280;9686;48.832;9.126;2023-03-20T02:19:48;98448.94;;;10.26;nan
19108;BME280;9686;48.832;9.126;2023-03-20T02:22:38;98456.75;;;10.32;nan
19108;BME280;9686;48.832;9.126;2023-03-20T02:25:13;98448.06;;;10.36;nan
19108;BME280;9686;48.832;9.126;2023-03-20T02:36:29;98456.75;;;10.32;nan
19108;BME280;9686;48.832;9.126;2023-03-20T02:40:09;98462.81;;;10.37;nan
19108;BME280;9686;48.832;9.126;2023-03-20T02:45:12;98452.41;;;10.43;nan
19108;BME280;9686;48.832;9.126;2023-03-20T02:55:54;98448.06;;;10.27;nan
19108;BME280;9686;48.832;9.126;2023-03-20T02:58:30;98449.81;;;10.28;nan
19108;BME280;9686;48.832;9.126;2023-03-20T03:01:05;98454.13;;;10.32;nan
19108;BME280;9686;48.832;9.126;2023-03-20T03:03:37;98450.66;;;10.33;nan
19108;BME280;9686;48.832;9.126;2023-03-20T03:06:16;98453.31;;;10.21;nan
19108;BME280;9686;48.832;9.126;2023-03-20T03:08:48;98463.69;;;10.16;nan
19108;BME280;9686;48.832;9.126;2023-03-20T03:11:14;98464.53;;;10.13;nan
19108;BME280;9686;48.832;9.126;2023-03-20T03:13:44;98456.78;;;10.21;nan
19108;BME280;9686;48.832;9.126;2023-03-20T03:16:15;98465.41;;;10.11;nan
19108;BME280;9686;48.832;9.126;2023-03-20T03:18:44;98459.34;;;10.09;nan
19108;BME280;9686;48.832;9.126;2023-03-20T03:21:11;98468.88;;;10.11;nan
19108;BME280;9686;48.832;9.126;2023-03-20T03:23:47;98468.03;;;10.15;nan
19108;BME280;9686;48.832;9.126;2023-03-20T03:26:23;98469.78;;;10.16;nan
19108;BME280;9686;48.832;9.126;2023-03-20T03:28:57;98469.78;;;10.26;nan
19108;BME280;9686;48.832;9.126;2023-03-20T03:31:24;98470.63;;;10.18;nan
19108;BME280;9686;48.832;9.126;2023-03-20T03:33:55;98471.53;;;10.21;nan
19108;BME280;9686;48.832;9.126;2023-03-20T03:36:28;98472.38;;;10.16;nan
19108;BME280;9686;48.832;9.126;2023-03-20T03:41:50;98478.47;;;10.17;nan
19108;BME280;9686;48.832;9.126;2023-03-20T03:44:48;98475.84;;;10.15;nan
19108;BME280;9686;48.832;9.126;2023-03-20T03:47:20;98481.91;;;10.13;nan
19108;BME280;9686;48.832;9.126;2023-03-20T03:49:54;98490.59;;;10.09;nan
19108;BME280;9686;48.832;9.126;2023-03-20T03:52:23;98480.19;;;10.16;nan
19108;BME280;9686;48.832;9.126;2023-03-20T03:54:53;98474.16;;;10.21;nan
19108;BME280;9686;48.832;9.126;2023-03-20T03:57:24;98472.41;;;10.24;nan
19108;BME280;9686;48.832;9.126;2023-03-20T03:59:52;98472.38;;;10.19;nan
19108;BME280;9686;48.832;9.126;2023-03-20T04:02:21;98482.78;;;10.16;nan
19108;BME280;9686;48.832;9.126;2023-03-20T04:04:50;98478.47;;;10.23;nan
19108;BME280;9686;48.832;9.126;2023-03-20T04:07:16;98492.34;;;10.33;nan
19108;BME280;9686;48.832;9.126;2023-03-20T04:09:41;98490.63;;;10.30;nan
19108;BME280;9686;48.832;9.126;2023-03-20T04:14:54;98497.59;;;10.22;nan
19108;BME280;9686;48.832;9.126;2023-03-20T04:17:19;98497.56;;;10.17;nan
19108;BME280;9686;48.832;9.126;2023-03-20T04:19:45;98498.44;;;10.15;nan
19108;BME280;9686;48.832;9.126;2023-03-20T04:22:10;98491.44;;;10.08;nan
19108;BME280;9686;48.832;9.126;2023-03-20T04:24:35;98493.25;;;10.24;nan
19108;BME280;9686;48.832;9.126;2023-03-20T04:27:00;98488.88;;;10.17;nan
19108;BME280;9686;48.832;9.126;2023-03-20T04:29:26;98483.66;;;10.32;nan
19108;BME280;9686;48.832;9.126;2023-03-20T04:31:51;98484.53;;;10.36;nan
19108;BME280;9686;48.832;9.126;2023-03-20T04:34:17;98481.91;;;10.39;nan
19108;BME280;9686;48.832;9.126;2023-03-20T04:36:43;98479.34;;;10.31;nan
19108;BME280;9686;48.832;9.126;2023-03-20T04:39:09;98483.63;;;10.14;nan
19108;BME280;9686;48.832;9.126;2023-03-20T04:41:34;98481.03;;;10.08;nan
19108;BME280;9686;48.832;9.126;2023-03-20T04:43:59;98487.13;;;10.05;nan
19108;BME280;9686;48.832;9.126;2023-03-20T04:46:25;98481.03;;;10.09;nan
19108;BME280;9686;48.832;9.126;2023-03-20T04:48:50;98487.13;;;10.16;nan
19108;BME280;9686;48.832;9.126;2023-03-20T04:51:15;98491.47;;;10.06;nan
19108;BME280;9686;48.832;9.126;2023-03-20T04:53:40;98500.13;;;10.04;nan
19108;BME280;9686;48.832;9.126;2023-03-20T04:56:06;98495.81;;;10.00;nan
19108;BME280;9686;48.832;9.126;2023-03-20T04:58:32;98499.28;;;9.91;nan
19108;BME280;9686;48.832;9.126;2023-03-20T05:00:57;98506.19;;;9.84;nan
19108;BME280;9686;48.832;9.126;2023-03-20T05:03:22;98505.34;;;9.90;nan
19108;BME280;9686;48.832;9.126;2023-03-20T05:05:48;98505.34;;;10.01;nan
19108;BME280;9686;48.832;9.126;2023-03-20T05:08:13;98507.94;;;9.96;nan
19108;BME280;9686;48.832;9.126;2023-03-20T05:10:38;98514.91;;;9.96;nan
19108;BME280;9686;48.832;9.126;2023-03-20T05:13:04;98518.38;;;9.98;nan
19108;BME280;9686;48.832;9.126;2023-03-20T05:15:29;98520.97;;;9.95;nan
19108;BME280;9686;48.832;9.126;2023-03-20T05:17:55;98527.06;;;9.92;nan
19108;BME280;9686;48.832;9.126;2023-03-20T05:20:20;98522.69;;;9.88;nan
19108;BME280;9686;48.832;9.126;2023-03-20T05:22:48;98530.53;;;10.00;nan
19108;BME280;9686;48.832;9.126;2023-03-20T05:25:14;98532.25;;;9.94;nan
19108;BME280;9686;48.832;9.126;2023-03-20T05:27:39;98529.66;;;9.92;nan
19108;BME280;9686;48.832;9.126;2023-03-20T05:30:05;98521.84;;;9.92;nan
19108;BME280;9686;48.832;9.126;2023-03-20T05:32:30;98519.25;;;10.07;nan
19108;BME280;9686;48.832;9.126;2023-03-20T05:34:55;98515.78;;;10.07;nan
19108;BME280;9686;48.832;9.126;2023-03-20T05:37:21;98513.19;;;10.19;nan
19108;BME280;9686;48.832;9.126;2023-03-20T05:39:46;98510.59;;;10.17;nan
19108;BME280;9686;48.832;9.126;2023-03-20T05:42:11;98514.91;;;10.09;nan
19108;BME280;9686;48.832;9.126;2023-03-20T05:44:36;98520.09;;;10.02;nan
19108;BME280;9686;48.832;9.126;2023-03-20T05:47:02;98522.72;;;10.00;nan
19108;BME280;9686;48.832;9.126;2023-03-20T05:49:27;98525.31;;;9.97;nan
19108;BME280;9686;48.832;9.126;2023-03-20T05:51:52;98528.78;;;10.01;nan
19108;BME280;9686;48.832;9.126;2023-03-20T05:54:18;98524.44;;;10.10;nan
19108;BME280;9686;48.832;9.126;2023-03-20T05:56:43;98532.31;;;10.26;nan
19108;BME280;9686;48.832;9.126;2023-03-20T05:59:10;98535.78;;;10.34;nan
19108;BME280;9686;48.832;9.126;2023-03-20T06:01:35;98535.78;;;10.29;nan
19108;BME280;9686;48.832;9.126;2023-03-20T06:04:00;98537.53;;;10.29;nan
19108;BME280;9686;48.832;9.126;2023-03-20T06:06:26;98534.88;;;10.12;nan
19108;BME280;9686;48.832;9.126;2023-03-20T06:08:51;98534.94;;;10.21;nan
19108;BME280;9686;48.832;9.126;2023-03-20T06:11:16;98541.88;;;10.24;nan
19108;BME280;9686;48.832;9.126;2023-03-20T06:13:42;98539.25;;;10.19;nan
19108;BME280;9686;48.832;9.126;2023-03-20T06:16:07;98542.72;;;10.35;nan
19108;BME280;9686;48.832;9.126;2023-03-20T06:18:32;98542.75;;;10.26;nan
19108;BME280;9686;48.832;9.126;2023-03-20T06:20:58;98546.22;;;10.31;nan
19108;BME280;9686;48.832;9.126;2023-03-20T06:23:23;98548.81;;;10.40;nan
19108;BME280;9686;48.832;9.126;2023-03-20T06:25:49;98539.25;;;10.37;nan
19108;BME280;9686;48.832;9.126;2023-03-20T06:28:14;98536.69;;;10.42;nan
19108;BME280;9686;48.832;9.126;2023-03-20T06:30:41;98534.91;;;10.39;nan
19108;BME280;9686;48.832;9.126;2023-03-20T06:33:06;98527.97;;;10.60;nan
19108;BME280;9686;48.832;9.126;2023-03-20T06:35:32;98524.47;;;10.62;nan
19108;BME280;9686;48.832;9.126;2023-03-20T06:37:58;98525.34;;;10.73;nan
19108;BME280;9686;48.832;9.126;2023-03-20T06:40:23;98512.31;;;10.72;nan
19108;BME280;9686;48.832;9.126;2023-03-20T06:42:49;98520.13;;;10.64;nan
19108;BME280;9686;48.832;9.126;2023-03-20T06:45:14;98525.34;;;10.75;nan
19108;BME280;9686;48.832;9.126;2023-03-20T06:47:40;98528.81;;;10.75;nan
19108;BME280;9686;48.832;9.126;2023-03-20T06:50:06;98528.78;;;10.85;nan
19108;BME280;9686;48.832;9.126;2023-03-20T06:52:32;98520.09;;;10.98;nan
19108;BME280;9686;48.832;9.126;2023-03-20T06:54:57;98517.41;;;11.16;nan
19108;BME280;9686;48.832;9.126;2023-03-20T06:57:23;98517.41;;;11.11;nan
19108;BME280;9686;48.832;9.126;2023-03-20T06:59:48;98525.19;;;11.27;nan
19108;BME280;9686;48.832;9.126;2023-03-20T07:02:14;98523.47;;;11.27;nan
19108;BME280;9686;48.832;9.126;2023-03-20T07:04:40;98523.38;;;11.50;nan
19108;BME280;9686;48.832;9.126;2023-03-20T07:07:05;98534.69;;;11.41;nan
19108;BME280;9686;48.832;9.126;2023-03-20T07:09:31;98542.44;;;11.61;nan
19108;BME280;9686;48.832;9.126;2023-03-20T07:11:57;98531.09;;;11.65;nan
19108;BME280;9686;48.832;9.126;2023-03-20T07:14:22;98541.50;;;11.81;nan
19108;BME280;9686;48.832;9.126;2023-03-20T07:16:47;98540.66;;;11.80;nan
19108;BME280;9686;48.832;9.126;2023-03-20T07:19:13;98544.97;;;11.84;nan
19108;BME280;9686;48.832;9.126;2023-03-20T07:21:38;98551.88;;;11.93;nan
19108;BME280;9686;48.832;9.126;2023-03-20T07:24:04;98551.00;;;11.92;nan
19108;BME280;9686;48.832;9.126;2023-03-20T07:26:31;98564.16;;;11.72;nan
19108;BME280;9686;48.832;9.126;2023-03-20T07:28:56;98557.22;;;11.71;nan
19108;BME280;9686;48.832;9.126;2023-03-20T07:31:24;98558.06;;;11.70;nan
19108;BME280;9686;48.832;9.126;2023-03-20T07:33:50;98559.81;;;11.71;nan
19108;BME280;9686;48.832;9.126;2023-03-20T07:36:15;98556.34;;;11.68;nan
19108;BME280;9686;48.832;9.126;2023-03-20T07:38:41;98551.97;;;11.73;nan
19108;BME280;9686;48.832;9.126;2023-03-20T07:41:06;98560.66;;;11.84;nan
19108;BME280;9686;48.832;9.126;2023-03-20T07:43:32;98557.09;;;11.99;nan
19108;BME280;9686;48.832;9.126;2023-03-20T07:46:01;98556.09;;;12.14;nan
19108;BME280;9686;48.832;9.126;2023-03-20T07:48:26;98555.31;;;12.04;nan
19108;BME280;9686;48.832;9.126;2023-03-20T07:50:51;98563.13;;;12.07;nan
19108;BME280;9686;48.832;9.126;2023-03-20T07:53:17;98555.31;;;12.06;nan
19108;BME280;9686;48.832;9.126;2023-03-20T07:55:42;98559.63;;;12.08;nan
19108;BME280;9686;48.832;9.126;2023-03-20T07:58:08;98549.19;;;12.08;nan
19108;BME280;9686;48.832;9.126;2023-03-20T08:00:33;98545.63;;;12.17;nan
19108;BME280;9686;48.832;9.126;2023-03-20T08:02:58;98551.59;;;12.35;nan
19108;BME280;9686;48.832;9.126;2023-03-20T08:05:24;98554.25;;;12.31;nan
19108;BME280;9686;48.832;9.126;2023-03-20T08:07:50;98549.75;;;12.48;nan
19108;BME280;9686;48.832;9.126;2023-03-20T08:10:15;98541.03;;;12.49;nan
19108;BME280;9686;48.832;9.126;2023-03-20T08:12:41;98549.84;;;12.36;nan
19108;BME280;9686;48.832;9.126;2023-03-20T08:15:07;98557.72;;;12.31;nan
19108;BME280;9686;48.832;9.126;2023-03-20T08:17:32;98555.16;;;12.28;nan
19108;BME280;9686;48.832;9.126;2023-03-20T08:19:58;98561.28;;;12.24;nan
19108;BME280;9686;48.832;9.126;2023-03-20T08:22:23;98555.09;;;12.33;nan
19108;BME280;9686;48.832;9.126;2023-03-20T08:24:48;98564.66;;;12.37;nan
19108;BME280;9686;48.832;9.126;2023-03-20T08:27:14;98566.38;;;12.41;nan
19108;BME280;9686;48.832;9.126;2023-03-20T08:29:39;98561.94;;;12.48;nan
19108;BME280;9686;48.832;9.126;2023-03-20T08:32:04;98565.31;;;12.65;nan
19108;BME280;9686;48.832;9.126;2023-03-20T08:34:30;98553.19;;;12.55;nan
19108;BME280;9686;48.832;9.126;2023-03-20T08:36:56;98558.28;;;12.69;nan
19108;BME280;9686;48.832;9.126;2023-03-20T08:39:21;98553.00;;;12.73;nan
19108;BME280;9686;48.832;9.126;2023-03-20T08:41:47;98556.28;;;12.95;nan
19108;BME280;9686;48.832;9.126;2023-03-20T08:44:12;98555.41;;;12.97;nan
19108;BME280;9686;48.832;9.126;2023-03-20T08:46:38;98551.19;;;12.84;nan
19108;BME280;9686;48.832;9.126;2023-03-20T08:49:04;98553.66;;;13.01;nan
19108;BME280;9686;48.832;9.126;2023-03-20T08:51:30;98550.97;;;13.06;nan
19108;BME280;9686;48.832;9.126;2023-03-20T08:53:55;98549.09;;;13.17;nan
19108;BME280;9686;48.832;9.126;2023-03-20T08:56:21;98556.97;;;13.14;nan
19108;BME280;9686;48.832;9.126;2023-03-20T08:58:46;98555.28;;;13.11;nan
19108;BME280;9686;48.832;9.126;2023-03-20T09:01:11;98554.41;;;13.09;nan
19108;BME280;9686;48.832;9.126;2023-03-20T09:03:38;98555.22;;;13.16;nan
19108;BME280;9686;48.832;9.126;2023-03-20T09:06:04;98554.44;;;13.08;nan
19108;BME280;9686;48.832;9.126;2023-03-20T09:08:31;98554.34;;;13.18;nan
19108;BME280;9686;48.832;9.126;2023-03-20T09:10:56;98557.72;;;13.31;nan
19108;BME280;9686;48.832;9.126;2023-03-20T09:13:21;98557.50;;;13.46;nan
19108;BME280;9686;48.832;9.126;2023-03-20T09:15:47;98560.94;;;13.50;nan
19108;BME280;9686;48.832;9.126;2023-03-20T09:18:12;98563.47;;;13.59;nan
19108;BME280;9686;48.832;9.126;2023-03-20T09:20:38;98558.91;;;13.75;nan
19108;BME280;9686;48.832;9.126;2023-03-20T09:23:03;98565.81;;;13.79;nan
19108;BME280;9686;48.832;9.126;2023-03-20T09:25:28;98552.91;;;13.65;nan
19108;BME280;9686;48.832;9.126;2023-03-20T09:27:54;98562.34;;;13.78;nan
19108;BME280;9686;48.832;9.126;2023-03-20T09:30:20;98551.94;;;13.72;nan
19108;BME280;9686;48.832;9.126;2023-03-20T09:32:48;98553.81;;;13.64;nan
19108;BME280;9686;48.832;9.126;2023-03-20T09:35:13;98550.09;;;13.79;nan
19108;BME280;9686;48.832;9.126;2023-03-20T09:37:39;98555.16;;;13.94;nan
19108;BME280;9686;48.832;9.126;2023-03-20T09:40:05;98555.50;;;14.30;nan
19108;BME280;9686;48.832;9.126;2023-03-20T09:42:53;98556.38;;;14.29;nan
19108;BME280;9686;48.832;9.126;2023-03-20T09:48:10;98553.72;;;14.30;nan
19108;BME280;9686;48.832;9.126;2023-03-20T09:50:47;98562.44;;;14.34;nan
19108;BME280;9686;48.832;9.126;2023-03-20T09:53:23;98556.97;;;14.49;nan
19108;BME280;9686;48.832;9.126;2023-03-20T09:55:50;98553.44;;;14.52;nan
19108;BME280;9686;48.832;9.126;2023-03-20T09:58:24;98557.06;;;14.43;nan
19108;BME280;9686;48.832;9.126;2023-03-20T10:00:55;98558.53;;;14.62;nan
19108;BME280;9686;48.832;9.126;2023-03-20T10:03:27;98569.00;;;14.62;nan
19108;BME280;9686;48.832;9.126;2023-03-20T10:05:58;98559.50;;;14.55;nan
19108;BME280;9686;48.832;9.126;2023-03-20T10:08:27;98569.38;;;14.38;nan
19108;BME280;9686;48.832;9.126;2023-03-20T10:19:22;98573.16;;;13.54;nan
19108;BME280;9686;48.832;9.126;2023-03-20T10:21:58;98576.59;;;13.57;nan
19108;BME280;9686;48.832;9.126;2023-03-20T10:24:33;98579.31;;;13.48;nan
19108;BME280;9686;48.832;9.126;2023-03-20T10:27:05;98578.75;;;13.20;nan
19108;BME280;9686;48.832;9.126;2023-03-20T10:29:46;98578.69;;;13.30;nan
19108;BME280;9686;48.832;9.126;2023-03-20T10:32:35;98577.03;;;13.19;nan
19108;BME280;9686;48.832;9.126;2023-03-20T10:35:22;98578.59;;;13.36;nan
19108;BME280;9686;48.832;9.126;2023-03-20T10:38:03;98582.91;;;13.40;nan
19108;BME280;9686;48.832;9.126;2023-03-20T10:40:32;98576.69;;;13.48;nan
19108;BME280;9686;48.832;9.126;2023-03-20T10:43:08;98577.56;;;13.47;nan
19108;BME280;9686;48.832;9.126;2023-03-20T10:45:45;98572.44;;;13.40;nan
19108;BME280;9686;48.832;9.126;2023-03-20T10:48:36;98574.91;;;13.52;nan
19108;BME280;9686;48.832;9.126;2023-03-20T10:51:03;98570.38;;;13.66;nan
19108;BME280;9686;48.832;9.126;2023-03-20T10:53:38;98577.50;;;13.52;nan
19108;BME280;9686;48.832;9.126;2023-03-20T10:56:09;98572.34;;;13.47;nan
19108;BME280;9686;48.832;9.126;2023-03-20T10:58:39;98564.13;;;13.75;nan
19108;BME280;9686;48.832;9.126;2023-03-20T11:01:05;98560.56;;;13.82;nan
19108;BME280;9686;48.832;9.126;2023-03-20T11:03:31;98561.72;;;13.60;nan
19108;BME280;9686;48.832;9.126;2023-03-20T11:06:04;98565.16;;;13.65;nan
19108;BME280;9686;48.832;9.126;2023-03-20T11:08:56;98556.44;;;13.64;nan
19108;BME280;9686;48.832;9.126;2023-03-20T11:11:26;98558.84;;;13.79;nan
19108;BME280;9686;48.832;9.126;2023-03-20T11:13:52;98553.50;;;13.88;nan
19108;BME280;9686;48.832;9.126;2023-03-20T11:18:43;98556.22;;;13.81;nan
19108;BME280;9686;48.832;9.126;2023-03-20T11:21:15;98563.19;;;13.79;nan
19108;BME280;9686;48.832;9.126;2023-03-20T11:23:41;98563.16;;;13.85;nan
19108;BME280;9686;48.832;9.126;2023-03-20T11:26:11;98566.69;;;13.82;nan
19108;BME280;9686;48.832;9.126;2023-03-20T11:28:45;98559.72;;;13.81;nan
19108;BME280;9686;48.832;9.126;2023-03-20T11:33:39;98562.22;;;13.89;nan
19108;BME280;9686;48.832;9.126;2023-03-20T11:36:25;98563.09;;;13.89;nan
19108;BME280;9686;48.832;9.126;2023-03-20T11:38:52;98555.38;;;13.76;nan
19108;BME280;9686;48.832;9.126;2023-03-20T11:41:27;98555.44;;;13.73;nan
19108;BME280;9686;48.832;9.126;2023-03-20T11:43:53;98557.88;;;13.86;nan
19108;BME280;9686;48.832;9.126;2023-03-20T11:46:20;98549.19;;;13.84;nan
19108;BME280;9686;48.832;9.126;2023-03-20T11:49:04;98554.25;;;13.97;nan
19108;BME280;9686;48.832;9.126;2023-03-20T11:51:30;98543.44;;;14.18;nan
19108;BME280;9686;48.832;9.126;2023-03-20T11:54:04;98539.78;;;14.28;nan
19108;BME280;9686;48.832;9.126;2023-03-20T11:56:33;98546.63;;;14.38;nan
19108;BME280;9686;48.832;9.126;2023-03-20T11:59:11;98547.72;;;14.79;nan
19108;BME280;9686;48.832;9.126;2023-03-20T12:01:49;98539.47;;;15.00;nan
19108;BME280;9686;48.832;9.126;2023-03-20T12:12:20;98546.19;;;14.67;nan
19108;BME280;9686;48.832;9.126;2023-03-20T12:17:56;98525.16;;;14.69;nan
19108;BME280;9686;48.832;9.126;2023-03-20T12:22:57;98537.31;;;14.74;nan
19108;BME280;9686;48.832;9.126;2023-03-20T12:25:27;98528.50;;;14.77;nan
19108;BME280;9686;48.832;9.126;2023-03-20T12:33:12;98512.81;;;15.20;nan
19108;BME280;9686;48.832;9.126;2023-03-20T12:35:43;98526.56;;;14.88;nan
19108;BME280;9686;48.832;9.126;2023-03-20T12:38:27;98511.44;;;15.01;nan
19108;BME280;9686;48.832;9.126;2023-03-20T12:49:27;98502.84;;;14.42;nan
19108;BME280;9686;48.832;9.126;2023-03-20T12:52:14;98507.22;;;14.41;nan
19108;BME280;9686;48.832;9.126;2023-03-20T13:00:36;98497.38;;;14.59;nan
19108;BME280;9686;48.832;9.126;2023-03-20T13:05:55;98491.63;;;15.29;nan
19108;BME280;9686;48.832;9.126;2023-03-20T13:08:37;98488.16;;;15.27;nan
19108;BME280;9686;48.832;9.126;2023-03-20T13:11:28;98483.84;;;15.25;nan
19108;BME280;9686;48.832;9.126;2023-03-20T13:14:03;98495.78;;;14.96;nan
19108;BME280;9686;48.832;9.126;2023-03-20T13:19:41;98487.78;;;15.02;nan
19108;BME280;9686;48.832;9.126;2023-03-20T13:22:15;98478.78;;;15.16;nan
19108;BME280;9686;48.832;9.126;2023-03-20T13:24:49;98473.56;;;15.14;nan
19108;BME280;9686;48.832;9.126;2023-03-20T13:29:52;98470.91;;;15.16;nan
19108;BME280;9686;48.832;9.126;2023-03-20T13:37:47;98450.84;;;15.53;nan
19108;BME280;9686;48.832;9.126;2023-03-20T13:40:19;98460.75;;;15.81;nan
19108;BME280;9686;48.832;9.126;2023-03-20T13:45:38;98452.13;;;15.76;nan
19108;BME280;9686;48.832;9.126;2023-03-20T13:48:35;98448.84;;;15.66;nan
19108;BME280;9686;48.832;9.126;2023-03-20T13:51:06;98449.03;;;15.55;nan
19108;BME280;9686;48.832;9.126;2023-03-20T13:56:41;98444.59;;;15.57;nan
19108;BME280;9686;48.832;9.126;2023-03-20T14:01:44;98440.72;;;15.36;nan
19108;BME280;9686;48.832;9.126;2023-03-20T14:04:16;98439.72;;;15.42;nan
19108;BME280;9686;48.832;9.126;2023-03-20T14:06:47;98431.88;;;15.40;nan
19108;BME280;9686;48.832;9.126;2023-03-20T14:09:33;98436.00;;;15.51;nan
19108;BME280;9686;48.832;9.126;2023-03-20T14:12:05;98429.66;;;15.62;nan
19108;BME280;9686;48.832;9.126;2023-03-20T14:14:56;98432.34;;;15.58;nan
19108;BME280;9686;48.832;9.126;2023-03-20T14:17:28;98427.22;;;15.52;nan
19108;BME280;9686;48.832;9.126;2023-03-20T14:19:55;98428.28;;;15.83;nan
19108;BME280;9686;48.832;9.126;2023-03-20T14:22:33;98431.13;;;15.74;nan
19108;BME280;9686;48.832;9.126;2023-03-20T14:25:03;98429.38;;;15.75;nan
19108;BME280;9686;48.832;9.126;2023-03-20T14:27:35;98426.81;;;16.07;nan
19108;BME280;9686;48.832;9.126;2023-03-20T14:32:58;98429.66;;;15.99;nan
19108;BME280;9686;48.832;9.126;2023-03-20T14:35:27;98422.25;;;16.15;nan
19108;BME280;9686;48.832;9.126;2023-03-20T14:38:10;98426.84;;;16.06;nan
19108;BME280;9686;48.832;9.126;2023-03-20T14:46:24;98415.66;;;15.62;nan
19108;BME280;9686;48.832;9.126;2023-03-20T14:48:54;98420.13;;;15.55;nan
19108;BME280;9686;48.832;9.126;2023-03-20T14:51:36;98421.84;;;15.56;nan
19108;BME280;9686;48.832;9.126;2023-03-20T14:56:45;98425.75;;;15.40;nan
19108;BME280;9686;48.832;9.126;2023-03-20T14:59:13;98417.75;;;15.45;nan
19108;BME280;9686;48.832;9.126;2023-03-20T15:01:44;98415.38;;;15.32;nan
19108;BME280;9686;48.832;9.126;2023-03-20T15:04:23;98405.63;;;15.39;nan
19108;BME280;9686;48.832;9.126;2023-03-20T15:09:36;98413.38;;;15.03;nan
19108;BME280;9686;48.832;9.126;2023-03-20T15:12:05;98406.97;;;15.17;nan
19108;BME280;9686;48.832;9.126;2023-03-20T15:14:52;98413.16;;;15.14;nan
19108;BME280;9686;48.832;9.126;2023-03-20T15:17:22;98406.25;;;15.10;nan
19108;BME280;9686;48.832;9.126;2023-03-20T15:19:47;98405.19;;;15.19;nan
19108;BME280;9686;48.832;9.126;2023-03-20T15:22:15;98401.94;;;15.06;nan
19108;BME280;9686;48.832;9.126;2023-03-20T15:24:41;98394.22;;;14.98;nan
19108;BME280;9686;48.832;9.126;2023-03-20T15:27:10;98400.66;;;14.85;nan
19108;BME280;9686;48.832;9.126;2023-03-20T15:29:36;98400.41;;;14.96;nan
19108;BME280;9686;48.832;9.126;2023-03-20T15:32:02;98400.44;;;14.94;nan
19108;BME280;9686;48.832;9.126;2023-03-20T15:34:30;98406.13;;;14.73;nan
19108;BME280;9686;48.832;9.126;2023-03-20T15:36:59;98413.72;;;14.87;nan
19108;BME280;9686;48.832;9.126;2023-03-20T15:39:28;98413.84;;;14.80;nan
19108;BME280;9686;48.832;9.126;2023-03-20T15:41:57;98410.53;;;14.71;nan